Time;durP1;ratioP1;P1;durP2;ratioP2;P2;SDS_P1;SDS_P2;PMS_P1;PMS_P2;Temp;Humidity;BMP_temperature;BMP_pressure;BME280_temperature;BME280_humidity;BME280_pressure;Samples;Min_cycle;Max_cycle;Signal;HPM_P1;HPM_P2
2023/06/19 00:00:26;;;;;;;4.30;3.90;;;24.40;89.70;;;;;;5065622;28;20202;-37
2023/06/19 00:02:56;;;;;;;4.95;3.67;;;24.40;90.00;;;;;;5064894;28;20208;-37
2023/06/19 00:05:25;;;;;;;4.25;3.70;;;24.30;90.00;;;;;;5063914;28;20302;-37
2023/06/19 00:07:59;;;;;;;4.97;4.10;;;24.30;90.00;;;;;;5063763;28;20233;-38
2023/06/19 00:10:31;;;;;;;5.03;3.78;;;24.30;90.10;;;;;;5096647;28;20204;-38
2023/06/19 00:12:59;;;;;;;4.80;3.78;;;24.20;90.10;;;;;;5065747;28;20231;-38
2023/06/19 00:15:29;;;;;;;4.78;3.80;;;24.20;90.10;;;;;;5092608;28;20708;-37
2023/06/19 00:18:01;;;;;;;4.63;3.70;;;24.20;90.10;;;;;;5064183;28;20214;-37
2023/06/19 00:20:31;;;;;;;4.20;3.80;;;24.10;90.30;;;;;;5096676;28;20532;-37
2023/06/19 00:22:58;;;;;;;4.70;4.22;;;24.10;90.30;;;;;;5063946;28;20242;-37
2023/06/19 00:25:28;;;;;;;4.30;3.55;;;24.00;90.40;;;;;;5064206;28;20237;-38
2023/06/19 00:27:55;;;;;;;4.82;3.90;;;23.90;90.40;;;;;;5065036;28;20204;-38
2023/06/19 00:30:22;;;;;;;4.63;3.97;;;23.90;90.30;;;;;;5065109;28;20704;-37
2023/06/19 00:32:52;;;;;;;6.78;4.15;;;23.90;90.70;;;;;;5063928;28;20230;-37
2023/06/19 00:35:22;;;;;;;4.75;3.92;;;23.80;90.70;;;;;;5064796;28;20257;-38
2023/06/19 00:37:52;;;;;;;6.10;3.80;;;23.80;90.70;;;;;;5096577;28;20207;-38
2023/06/19 00:40:32;;;;;;;4.25;3.67;;;23.70;90.70;;;;;;5062274;28;20208;-38
2023/06/19 00:42:59;;;;;;;4.78;3.78;;;23.70;91.00;;;;;;5094014;28;20199;-38
2023/06/19 00:45:29;;;;;;;5.03;4.53;;;23.70;90.90;;;;;;5096496;28;20226;-38
2023/06/19 00:47:58;;;;;;;5.13;3.97;;;23.60;91.00;;;;;;5064306;28;20346;-38
2023/06/19 00:50:31;;;;;;;4.85;3.60;;;23.60;91.00;;;;;;5064655;28;20498;-38
2023/06/19 00:53:02;;;;;;;5.07;3.70;;;23.50;90.90;;;;;;5062817;28;20241;-35
2023/06/19 01:18:26;;;;;;;4.90;3.15;;;23.30;91.70;;;;;;5057411;28;20272;-39
2023/06/19 01:20:55;;;;;;;4.28;3.00;;;23.20;91.30;;;;;;5063300;28;20206;-37
2023/06/19 01:23:22;;;;;;;4.15;3.50;;;23.20;91.50;;;;;;5064019;28;20199;-39
2023/06/19 01:25:50;;;;;;;3.25;2.97;;;23.30;91.60;;;;;;5063850;28;20542;-37
2023/06/19 01:28:17;;;;;;;3.85;3.03;;;23.20;91.50;;;;;;5063808;28;21083;-38
2023/06/19 01:30:47;;;;;;;3.75;2.95;;;23.20;91.40;;;;;;5063772;28;20203;-39
2023/06/19 01:33:26;;;;;;;3.95;3.40;;;23.30;91.60;;;;;;5095682;28;20247;-39
2023/06/19 01:35:57;;;;;;;4.78;3.30;;;23.20;91.60;;;;;;5063565;28;20203;-39
2023/06/19 01:38:29;;;;;;;3.35;2.95;;;23.30;91.60;;;;;;5062286;28;20192;-39
2023/06/19 01:41:00;;;;;;;5.38;3.20;;;23.30;91.60;;;;;;5063579;28;20677;-39
2023/06/19 01:43:33;;;;;;;4.90;3.05;;;23.30;91.70;;;;;;5095289;28;20199;-38
2023/06/19 01:46:04;;;;;;;3.35;2.92;;;23.20;91.80;;;;;;5078092;28;20211;-39
2023/06/19 01:48:31;;;;;;;3.30;3.00;;;23.20;91.80;;;;;;5063324;28;20210;-39
2023/06/19 01:51:03;;;;;;;3.85;3.40;;;23.20;92.00;;;;;;5045146;28;20250;-39
2023/06/19 01:53:31;;;;;;;3.55;2.90;;;23.20;91.80;;;;;;5063278;28;20783;-37
2023/06/19 01:56:01;;;;;;;4.82;3.40;;;23.20;91.80;;;;;;5063384;28;20200;-39
2023/06/19 01:58:28;;;;;;;6.25;2.83;;;23.20;91.80;;;;;;5095125;28;20620;-37
2023/06/19 02:00:55;;;;;;;5.43;2.88;;;23.20;91.90;;;;;;5061756;28;20248;-39
2023/06/19 02:03:23;;;;;;;3.15;2.85;;;23.20;91.90;;;;;;5063188;28;20207;-39
2023/06/19 02:05:50;;;;;;;4.05;3.25;;;23.20;92.00;;;;;;5095411;28;20223;-40
2023/06/19 02:08:20;;;;;;;3.60;2.90;;;23.30;92.00;;;;;;5063564;28;20219;-40
2023/06/19 02:10:48;;;;;;;4.00;3.05;;;23.30;92.10;;;;;;5095093;28;20204;-39
2023/06/19 02:13:17;;;;;;;3.30;3.00;;;23.30;92.20;;;;;;5095057;28;20219;-39
2023/06/19 02:15:47;;;;;;;4.03;2.92;;;23.20;92.10;;;;;;5095126;28;20288;-38
2023/06/19 02:18:16;;;;;;;6.35;3.33;;;23.30;92.30;;;;;;5063283;28;20230;-39
2023/06/19 02:20:46;;;;;;;4.07;2.88;;;23.20;92.40;;;;;;5094797;28;20291;-39
2023/06/19 02:23:16;;;;;;;3.40;3.10;;;23.30;92.20;;;;;;5062014;28;20345;-48
2023/06/19 02:25:46;;;;;;;3.83;3.00;;;23.30;92.30;;;;;;5062685;28;20857;-40
2023/06/19 02:28:13;;;;;;;3.03;2.72;;;23.20;92.40;;;;;;5045018;28;20203;-41
2023/06/19 02:30:41;;;;;;;3.10;2.88;;;23.30;92.40;;;;;;5094780;28;20919;-46
2023/06/19 02:33:08;;;;;;;4.88;2.90;;;23.20;92.40;;;;;;5061513;28;20281;-40
2023/06/19 02:35:41;;;;;;;3.58;3.00;;;23.20;92.40;;;;;;5061179;28;20195;-39
2023/06/19 02:38:14;;;;;;;4.03;2.80;;;23.30;92.50;;;;;;5061900;28;20206;-39
2023/06/19 02:40:41;;;;;;;5.20;3.13;;;23.30;92.50;;;;;;5063780;28;20611;-39
2023/06/19 02:43:09;;;;;;;3.85;3.03;;;23.30;92.50;;;;;;5064184;28;20231;-39
2023/06/19 02:45:38;;;;;;;3.33;2.85;;;23.30;92.60;;;;;;5062231;28;20314;-38
2023/06/19 02:48:10;;;;;;;3.60;3.30;;;23.30;92.60;;;;;;5061619;28;20207;-39
2023/06/19 02:50:37;;;;;;;4.20;3.10;;;23.30;92.60;;;;;;5061031;28;20207;-39
2023/06/19 02:53:04;;;;;;;4.47;3.22;;;23.30;92.70;;;;;;5062741;28;20268;-39
2023/06/19 02:55:31;;;;;;;4.93;2.90;;;23.30;92.80;;;;;;5062933;28;20195;-39
2023/06/19 02:57:59;;;;;;;5.80;3.28;;;23.30;92.70;;;;;;5095018;28;20254;-39
2023/06/19 03:00:31;;;;;;;5.13;3.20;;;23.30;92.80;;;;;;5061542;28;20211;-39
2023/06/19 03:03:01;;;;;;;4.80;3.35;;;23.30;92.90;;;;;;5061169;28;20213;-40
2023/06/19 03:05:33;;;;;;;4.97;3.20;;;23.30;93.00;;;;;;5062329;28;20624;-39
2023/06/19 03:08:01;;;;;;;4.25;3.10;;;23.20;93.00;;;;;;5062525;28;20214;-39
2023/06/19 03:10:28;;;;;;;5.22;3.28;;;23.30;92.90;;;;;;5094630;28;20620;-39
2023/06/19 03:12:55;;;;;;;4.63;3.50;;;23.20;93.00;;;;;;5061001;28;20226;-39
2023/06/19 03:15:27;;;;;;;4.45;3.10;;;23.20;93.00;;;;;;5062392;28;20200;-39
2023/06/19 03:18:03;;;;;;;4.60;3.30;;;23.20;93.20;;;;;;5066493;28;20195;-39
2023/06/19 03:20:33;;;;;;;4.05;3.65;;;23.30;93.30;;;;;;5066279;28;20199;-39
2023/06/19 03:23:00;;;;;;;5.18;3.90;;;23.20;93.50;;;;;;5098516;28;20299;-39
2023/06/19 03:25:33;;;;;;;3.80;3.50;;;23.20;93.50;;;;;;5081143;28;20728;-39
2023/06/19 03:28:04;;;;;;;4.30;3.90;;;23.30;93.80;;;;;;5066513;28;20579;-39
2023/06/19 03:30:31;;;;;;;5.35;3.88;;;23.20;93.80;;;;;;5065407;28;20195;-39
2023/06/19 03:32:59;;;;;;;4.68;3.35;;;23.20;93.70;;;;;;5065886;28;20239;-39
2023/06/19 03:35:26;;;;;;;4.90;3.50;;;23.20;93.70;;;;;;5097730;28;20294;-40
2023/06/19 03:37:53;;;;;;;4.88;3.30;;;23.20;93.80;;;;;;5097830;28;20743;-39
2023/06/19 03:40:20;;;;;;;4.85;3.35;;;23.20;93.90;;;;;;5097551;28;20272;-39
2023/06/19 03:42:50;;;;;;;5.90;3.42;;;23.20;94.00;;;;;;5098145;28;20215;-40
2023/06/19 03:45:20;;;;;;;5.40;4.03;;;23.20;93.90;;;;;;5098362;28;20216;-39
2023/06/19 03:47:49;;;;;;;5.30;3.80;;;23.20;94.30;;;;;;5097607;28;20649;-39
2023/06/19 03:50:16;;;;;;;5.68;3.70;;;23.20;94.10;;;;;;5098007;28;20218;-39
2023/06/19 03:52:59;;;;;;;4.03;3.63;;;23.20;94.00;;;;;;5094126;28;20222;-40
2023/06/19 03:55:26;;;;;;;5.82;3.72;;;23.20;94.20;;;;;;5065496;28;20195;-39
2023/06/19 03:57:58;;;;;;;4.88;4.00;;;23.20;94.10;;;;;;5065901;28;20249;-39
2023/06/19 04:00:30;;;;;;;8.70;4.20;;;23.20;94.30;;;;;;5065502;28;20199;-39
2023/06/19 04:03:00;;;;;;;4.72;4.20;;;23.20;94.50;;;;;;5065562;28;20673;-39
2023/06/19 04:05:30;;;;;;;5.82;4.00;;;23.20;94.60;;;;;;5096755;28;20214;-39
2023/06/19 04:07:57;;;;;;;4.80;4.22;;;23.20;94.50;;;;;;5065526;28;20211;-39
2023/06/19 04:10:27;;;;;;;5.90;4.75;;;23.10;94.50;;;;;;5064175;28;20257;-40
2023/06/19 04:12:59;;;;;;;6.72;4.63;;;23.10;94.40;;;;;;5064351;28;20310;-39
2023/06/19 04:15:26;;;;;;;6.32;4.88;;;23.10;94.50;;;;;;5097431;28;20707;-40
2023/06/19 04:17:55;;;;;;;6.15;5.32;;;23.10;94.50;;;;;;5097314;28;20262;-39
2023/06/19 04:20:23;;;;;;;11.60;6.47;;;23.00;94.40;;;;;;5097313;28;20294;-39
2023/06/19 04:22:52;;;;;;;7.45;6.75;;;23.00;94.40;;;;;;5096797;28;20231;-39
2023/06/19 04:25:22;;;;;;;8.60;7.80;;;23.00;94.40;;;;;;5064437;28;20223;-39
2023/06/19 04:27:52;;;;;;;8.88;7.97;;;23.00;94.50;;;;;;5062609;28;20629;-39
2023/06/19 04:30:21;;;;;;;9.85;8.02;;;22.90;94.40;;;;;;5064738;28;20729;-39
2023/06/19 04:32:49;;;;;;;11.55;8.43;;;22.90;94.30;;;;;;5095583;28;20224;-39
2023/06/19 04:35:18;;;;;;;8.20;7.45;;;22.90;94.50;;;;;;5096246;28;20207;-39
2023/06/19 04:37:50;;;;;;;9.15;8.18;;;22.80;94.50;;;;;;5062880;28;20438;-39
2023/06/19 04:40:19;;;;;;;12.07;8.43;;;22.80;94.50;;;;;;5096283;28;20204;-38
2023/06/19 04:42:47;;;;;;;8.38;7.57;;;22.80;94.80;;;;;;5064000;28;20212;-39
2023/06/19 04:45:16;;;;;;;7.22;6.50;;;22.70;94.70;;;;;;5045401;28;20200;-39
2023/06/19 04:47:44;;;;;;;6.97;6.22;;;22.70;94.40;;;;;;5064387;28;20231;-39
2023/06/19 04:50:21;;;;;;;8.30;6.32;;;22.70;94.50;;;;;;5064063;28;20290;-39
2023/06/19 04:52:50;;;;;;;9.48;6.68;;;22.70;94.30;;;;;;5095374;28;20326;-39
2023/06/19 04:55:19;;;;;;;6.00;5.40;;;22.70;94.30;;;;;;5095007;28;20746;-39
2023/06/19 04:57:48;;;;;;;6.32;5.60;;;22.70;94.20;;;;;;5063726;28;20192;-37
2023/06/19 05:00:19;;;;;;;7.57;5.63;;;22.60;94.20;;;;;;5063137;28;20542;-37
2023/06/19 05:02:47;;;;;;;7.78;6.22;;;22.60;94.40;;;;;;5064204;28;20256;-38
2023/06/19 05:05:15;;;;;;;6.07;5.45;;;22.60;94.10;;;;;;5095734;28;20200;-37
2023/06/19 05:07:47;;;;;;;7.03;5.45;;;22.70;94.10;;;;;;5095100;28;20214;-38
2023/06/19 05:10:16;;;;;;;6.22;5.63;;;22.70;94.10;;;;;;5063424;28;20293;-38
2023/06/19 05:12:51;;;;;;;8.07;5.40;;;22.70;94.00;;;;;;5063719;28;20681;-38
2023/06/19 05:15:18;;;;;;;5.82;5.20;;;22.70;94.00;;;;;;5095262;28;20203;-39
2023/06/19 05:17:48;;;;;;;6.22;5.22;;;22.70;94.10;;;;;;5062093;28;20257;-39
2023/06/19 05:20:20;;;;;;;6.00;5.05;;;22.80;94.10;;;;;;5063117;28;20257;-38
2023/06/19 05:22:47;;;;;;;6.18;4.60;;;22.80;94.10;;;;;;5063051;28;20285;-38
2023/06/19 05:25:17;;;;;;;6.50;5.15;;;22.90;94.20;;;;;;5063439;28;20232;-37
2023/06/19 05:27:44;;;;;;;7.32;4.90;;;22.90;94.30;;;;;;5062847;28;20252;-38
2023/06/19 05:30:12;;;;;;;8.05;5.63;;;23.00;94.20;;;;;;5095335;28;20602;-38
2023/06/19 05:32:39;;;;;;;7.78;5.55;;;23.00;94.30;;;;;;5063280;28;20239;-38
2023/06/19 05:35:07;;;;;;;6.60;5.40;;;23.00;94.20;;;;;;5062802;28;20196;-38
2023/06/19 05:37:34;;;;;;;6.32;5.13;;;23.00;94.20;;;;;;5062915;28;20230;-38
2023/06/19 05:40:04;;;;;;;8.63;5.88;;;23.00;94.30;;;;;;5062469;28;20628;-38
2023/06/19 05:42:31;;;;;;;7.72;6.22;;;23.00;94.20;;;;;;5094905;28;20219;-38
2023/06/19 05:45:03;;;;;;;11.10;6.55;;;23.00;94.20;;;;;;5093654;28;20285;-38
2023/06/19 05:47:35;;;;;;;7.57;6.03;;;23.00;94.10;;;;;;5061403;28;20191;-37
2023/06/19 05:50:03;;;;;;;6.53;5.68;;;23.00;94.20;;;;;;5061329;28;20206;-40
2023/06/19 05:52:30;;;;;;;7.93;5.68;;;23.00;94.10;;;;;;5094596;28;20202;-38
2023/06/19 05:54:58;;;;;;;10.55;5.45;;;23.00;94.20;;;;;;5094288;28;20203;-38
2023/06/19 05:57:27;;;;;;;9.07;5.55;;;23.10;94.30;;;;;;5061367;28;20207;-39
2023/06/19 06:00:00;;;;;;;9.30;5.30;;;23.10;94.40;;;;;;5061053;28;20211;-38
2023/06/19 06:02:29;;;;;;;13.85;6.10;;;23.20;94.30;;;;;;5094586;28;20196;-38
2023/06/19 06:04:59;;;;;;;8.43;6.30;;;23.20;94.40;;;;;;5050391;28;20227;-38
2023/06/19 06:07:28;;;;;;;10.18;6.30;;;23.20;94.40;;;;;;5042485;28;20209;-38
2023/06/19 06:10:00;;;;;;;7.03;5.80;;;23.30;94.40;;;;;;5042873;28;20691;-38
2023/06/19 06:12:30;;;;;;;8.05;6.45;;;23.30;94.40;;;;;;5042431;28;20225;-38
2023/06/19 06:14:59;;;;;;;8.35;6.93;;;23.20;94.40;;;;;;5073651;28;20246;-38
2023/06/19 06:17:28;;;;;;;7.68;6.32;;;23.20;94.50;;;;;;5042090;28;20222;-38
2023/06/19 06:19:58;;;;;;;7.57;6.22;;;23.20;94.30;;;;;;5042234;28;20200;-39
2023/06/19 06:22:25;;;;;;;8.40;6.47;;;23.20;94.20;;;;;;5074231;28;20243;-38
2023/06/19 06:24:55;;;;;;;9.80;5.90;;;23.20;94.20;;;;;;5057259;28;20204;-39
2023/06/19 06:27:24;;;;;;;6.97;6.10;;;23.20;94.20;;;;;;5057151;28;20204;-39
2023/06/19 06:29:51;;;;;;;7.03;6.10;;;23.10;94.10;;;;;;5040799;28;20323;-39
2023/06/19 06:32:20;;;;;;;6.68;5.88;;;23.10;94.10;;;;;;5040910;28;20666;-39
2023/06/19 06:34:55;;;;;;;7.78;5.88;;;23.10;94.20;;;;;;5042168;28;20804;-39
2023/06/19 06:37:22;;;;;;;7.53;6.50;;;23.10;94.10;;;;;;5042275;28;20204;-39
2023/06/19 06:39:52;;;;;;;6.47;5.88;;;23.10;94.10;;;;;;5057517;28;20200;-39
2023/06/19 06:42:21;;;;;;;10.38;6.07;;;23.10;94.20;;;;;;5040909;28;20191;-39
2023/06/19 06:44:51;;;;;;;7.85;6.05;;;23.10;94.00;;;;;;5057926;28;20227;-39
2023/06/19 06:47:18;;;;;;;6.85;5.93;;;23.10;94.10;;;;;;5042021;28;20685;-38
2023/06/19 06:49:45;;;;;;;9.70;6.50;;;23.10;94.00;;;;;;5074982;28;20192;-39
2023/06/19 06:52:13;;;;;;;7.60;6.30;;;23.10;94.10;;;;;;5078276;28;20622;-36
2023/06/19 06:54:45;;;;;;;7.20;6.25;;;23.10;94.10;;;;;;5061572;28;20323;-35
2023/06/19 06:57:13;;;;;;;11.98;7.13;;;23.10;94.00;;;;;;5046762;28;20224;-35
2023/06/19 06:59:44;;;;;;;10.23;6.60;;;23.10;94.10;;;;;;5045945;28;20207;-35
2023/06/19 07:02:14;;;;;;;8.13;7.03;;;23.10;94.10;;;;;;5046172;28;20200;-35
2023/06/19 07:04:44;;;;;;;9.82;7.15;;;23.10;94.10;;;;;;5045701;28;20222;-35
2023/06/19 07:07:11;;;;;;;6.38;5.75;;;23.10;94.10;;;;;;5060707;28;20297;-35
2023/06/19 07:09:41;;;;;;;8.35;7.20;;;23.20;94.10;;;;;;5061037;28;20872;-35
2023/06/19 07:12:11;;;;;;;8.32;7.25;;;23.20;94.10;;;;;;5045905;28;21006;-35
2023/06/19 07:14:38;;;;;;;8.93;6.88;;;23.20;94.00;;;;;;5060494;28;20338;-35
2023/06/19 07:17:07;;;;;;;10.35;7.78;;;23.20;94.00;;;;;;5045605;28;20204;-35
2023/06/19 07:19:36;;;;;;;9.63;6.85;;;23.10;93.80;;;;;;5045689;28;20726;-35
2023/06/19 07:22:09;;;;;;;9.88;6.90;;;23.10;93.80;;;;;;5060039;28;20744;-35
2023/06/19 07:24:39;;;;;;;10.82;8.00;;;23.10;93.80;;;;;;5045327;28;20212;-35
2023/06/19 07:27:07;;;;;;;8.10;6.68;;;23.00;93.80;;;;;;5044073;28;20314;-35
2023/06/19 07:29:39;;;;;;;8.75;7.78;;;23.00;93.70;;;;;;5060527;28;20250;-34
2023/06/19 07:32:10;;;;;;;11.25;8.05;;;22.90;93.80;;;;;;5045257;28;20753;-35
2023/06/19 07:34:42;;;;;;;11.73;8.05;;;22.90;93.80;;;;;;5045746;28;20227;-34
2023/06/19 07:37:10;;;;;;;12.48;7.43;;;22.90;93.70;;;;;;5077451;28;20200;-35
2023/06/19 07:39:39;;;;;;;10.13;7.10;;;22.90;93.60;;;;;;5059981;28;20224;-35
2023/06/19 07:42:12;;;;;;;9.60;7.00;;;22.90;93.60;;;;;;5076213;28;20258;-35
2023/06/19 07:44:42;;;;;;;9.23;7.78;;;22.90;93.70;;;;;;5044545;28;20200;-35
2023/06/19 07:47:10;;;;;;;9.13;7.70;;;22.90;93.70;;;;;;5076793;28;20207;-35
2023/06/19 07:49:37;;;;;;;10.60;7.30;;;23.00;93.70;;;;;;5059748;28;20227;-35
2023/06/19 07:52:05;;;;;;;8.90;7.00;;;23.00;93.70;;;;;;5043369;28;20239;-35
2023/06/19 07:54:34;;;;;;;9.35;7.03;;;23.00;93.80;;;;;;5059859;28;20231;-35
2023/06/19 07:57:07;;;;;;;8.98;6.72;;;23.00;93.70;;;;;;5044415;28;20203;-35
2023/06/19 07:59:38;;;;;;;8.93;6.68;;;23.10;93.70;;;;;;5043215;28;20224;-35
2023/06/19 08:02:05;;;;;;;7.60;6.57;;;23.10;93.70;;;;;;5058544;28;20630;-36
2023/06/19 08:04:34;;;;;;;7.18;6.30;;;23.10;93.70;;;;;;5044691;28;20298;-35
2023/06/19 08:07:08;;;;;;;12.45;8.55;;;23.20;93.80;;;;;;5059188;28;20759;-35
2023/06/19 08:09:35;;;;;;;9.15;7.70;;;23.20;93.80;;;;;;5042943;28;20204;-36
2023/06/19 08:12:10;;;;;;;9.00;6.97;;;23.30;93.90;;;;;;5043500;28;20753;-36
2023/06/19 08:14:44;;;;;;;8.25;6.65;;;23.30;93.90;;;;;;5027384;28;20304;-36
2023/06/19 08:17:14;;;;;;;12.25;7.20;;;23.40;93.90;;;;;;5043343;28;20287;-35
2023/06/19 08:19:44;;;;;;;8.75;7.03;;;23.50;93.90;;;;;;5043915;28;20306;-36
2023/06/19 08:22:11;;;;;;;8.30;7.05;;;23.50;93.90;;;;;;5044105;28;20331;-36
2023/06/19 08:24:41;;;;;;;7.85;6.53;;;23.50;94.10;;;;;;5059429;28;20200;-36
2023/06/19 08:27:10;;;;;;;10.88;7.78;;;23.60;93.90;;;;;;5043943;28;20210;-36
2023/06/19 08:29:40;;;;;;;11.50;7.32;;;23.70;93.90;;;;;;5076041;28;20222;-36
2023/06/19 08:32:09;;;;;;;12.43;6.43;;;23.70;93.90;;;;;;5043832;28;20562;-36
2023/06/19 08:34:38;;;;;;;8.93;6.50;;;23.70;93.90;;;;;;5042535;28;20227;-36
2023/06/19 08:37:08;;;;;;;7.68;6.05;;;23.80;93.90;;;;;;5058244;28;20526;-36
2023/06/19 08:39:38;;;;;;;11.23;6.53;;;23.80;93.90;;;;;;5058356;28;20277;-36
2023/06/19 08:42:09;;;;;;;8.20;5.97;;;23.90;93.90;;;;;;5043626;28;20235;-36
2023/06/19 08:44:37;;;;;;;9.68;7.28;;;23.90;93.90;;;;;;5058895;28;20744;-36
2023/06/19 08:47:09;;;;;;;10.98;7.10;;;24.00;93.90;;;;;;5058962;28;20196;-36
2023/06/19 08:49:37;;;;;;;9.95;7.20;;;24.00;93.90;;;;;;5059553;28;20713;-36
2023/06/19 08:52:07;;;;;;;7.18;6.18;;;24.00;93.80;;;;;;5044239;28;20331;-36
2023/06/19 08:54:43;;;;;;;9.82;8.00;;;24.00;93.80;;;;;;5042257;28;20224;-36
2023/06/19 08:57:12;;;;;;;12.63;7.55;;;24.00;93.80;;;;;;5041818;28;20284;-36
2023/06/19 08:59:52;;;;;;;10.02;7.25;;;24.00;93.80;;;;;;5058550;28;20289;-36
2023/06/19 09:02:20;;;;;;;11.10;6.82;;;24.00;93.80;;;;;;5043326;28;20345;-36
2023/06/19 09:04:50;;;;;;;13.93;6.85;;;24.00;93.80;;;;;;5043370;28;20660;-37
2023/06/19 09:07:19;;;;;;;8.98;7.20;;;24.00;93.70;;;;;;5058249;28;20204;-39
2023/06/19 09:09:51;;;;;;;9.65;7.25;;;24.10;93.80;;;;;;5043400;28;20557;-41
2023/06/19 09:12:18;;;;;;;7.15;6.13;;;24.10;93.80;;;;;;5043082;28;20760;-41
2023/06/19 09:14:46;;;;;;;8.55;6.57;;;24.20;93.80;;;;;;5074580;28;20232;-41
2023/06/19 09:17:19;;;;;;;10.10;6.82;;;24.20;93.80;;;;;;5074957;28;20204;-40
2023/06/19 09:19:55;;;;;;;9.57;7.53;;;24.30;93.90;;;;;;5043209;28;20693;-40
2023/06/19 09:22:24;;;;;;;11.52;8.02;;;24.30;93.90;;;;;;5042836;28;20243;-39
2023/06/19 09:24:52;;;;;;;11.75;8.10;;;24.40;93.90;;;;;;5041265;28;20204;-40
2023/06/19 09:27:23;;;;;;;9.95;7.85;;;24.40;93.90;;;;;;5057537;28;20557;-40
2023/06/19 09:29:53;;;;;;;12.70;7.18;;;24.50;93.90;;;;;;5042683;28;20204;-40
2023/06/19 09:32:25;;;;;;;9.95;7.05;;;24.60;93.90;;;;;;5057941;28;20211;-40
2023/06/19 09:34:55;;;;;;;9.45;6.60;;;24.60;93.90;;;;;;5042557;28;20216;-40
2023/06/19 09:37:29;;;;;;;10.07;7.32;;;24.70;94.00;;;;;;5042038;28;20861;-40
2023/06/19 09:40:06;;;;;;;8.65;6.90;;;24.80;94.20;;;;;;5057906;28;20696;-40
2023/06/19 09:42:37;;;;;;;15.10;7.97;;;24.80;94.10;;;;;;5042629;28;20752;-39
2023/06/19 09:45:06;;;;;;;12.43;7.32;;;24.90;94.10;;;;;;5057676;28;20200;-39
2023/06/19 09:47:44;;;;;;;15.43;7.97;;;25.00;94.00;;;;;;5041589;28;20551;-40
2023/06/19 09:50:16;;;;;;;13.98;7.00;;;25.00;94.00;;;;;;5073476;28;20204;-39
2023/06/19 09:52:44;;;;;;;13.18;7.00;;;25.00;94.00;;;;;;5042904;28;20655;-40
2023/06/19 09:55:13;;;;;;;12.48;7.75;;;25.00;94.00;;;;;;5074134;28;20329;-41
2023/06/19 09:57:42;;;;;;;9.48;6.88;;;25.10;94.00;;;;;;5057376;28;20188;-40
2023/06/19 10:00:15;;;;;;;7.03;6.05;;;25.20;94.00;;;;;;5040980;28;20213;-40
2023/06/19 10:02:45;;;;;;;10.38;7.65;;;25.20;94.10;;;;;;5057550;28;20219;-40
2023/06/19 10:05:30;;;;;;;9.80;8.00;;;25.30;94.00;;;;;;5057569;28;20661;-40
2023/06/19 10:08:00;;;;;;;10.38;7.80;;;25.30;93.90;;;;;;5042904;28;20695;-47
2023/06/19 10:10:28;;;;;;;11.15;7.55;;;25.40;93.90;;;;;;5040758;28;20296;-41
2023/06/19 10:13:12;;;;;;;7.75;6.82;;;25.40;93.90;;;;;;5056949;28;20685;-40
2023/06/19 10:15:44;;;;;;;11.32;7.28;;;25.40;93.90;;;;;;5041863;28;20251;-42
2023/06/19 10:18:16;;;;;;;9.75;8.20;;;25.50;93.90;;;;;;5041882;28;20669;-41
2023/06/19 10:20:46;;;;;;;8.50;6.90;;;25.50;93.90;;;;;;5041921;28;20279;-40
2023/06/19 10:23:21;;;;;;;10.45;7.00;;;25.60;93.90;;;;;;5040679;28;20274;-40
2023/06/19 10:25:54;;;;;;;9.52;8.38;;;25.60;94.00;;;;;;5041049;28;20200;-40
2023/06/19 10:28:31;;;;;;;11.13;8.90;;;25.70;94.00;;;;;;5056273;28;20549;-42
2023/06/19 10:30:59;;;;;;;15.57;8.88;;;25.70;93.90;;;;;;5042106;28;20195;-41
2023/06/19 10:33:33;;;;;;;11.27;8.32;;;25.80;94.20;;;;;;5057232;28;20208;-39
2023/06/19 10:36:04;;;;;;;11.52;8.73;;;25.80;93.90;;;;;;5042186;28;20192;-43
2023/06/19 10:38:32;;;;;;;10.63;8.18;;;25.90;93.90;;;;;;5040714;28;20209;-40
2023/06/19 10:40:59;;;;;;;16.10;9.35;;;25.90;93.90;;;;;;5074664;28;20200;-40
2023/06/19 10:43:31;;;;;;;15.40;9.27;;;26.00;93.80;;;;;;5042863;28;20318;-40
2023/06/19 10:46:04;;;;;;;12.30;7.57;;;26.00;93.80;;;;;;5042572;28;20211;-40
2023/06/19 10:48:32;;;;;;;9.27;7.70;;;26.00;93.60;;;;;;5057700;28;20204;-39
2023/06/19 10:51:01;;;;;;;10.40;8.13;;;26.00;93.60;;;;;;5024749;28;20664;-39
2023/06/19 10:53:34;;;;;;;9.52;7.65;;;26.00;93.60;;;;;;5041969;28;20228;-37
2023/06/19 10:56:02;;;;;;;10.60;8.35;;;26.00;93.60;;;;;;5041384;28;20243;-38
2023/06/19 10:58:29;;;;;;;9.32;8.38;;;26.00;93.50;;;;;;5041506;28;20211;-38
2023/06/19 11:01:02;;;;;;;12.77;8.00;;;26.00;93.60;;;;;;5056671;28;20220;-37
2023/06/19 11:03:32;;;;;;;8.30;6.70;;;26.00;93.60;;;;;;5040372;28;20219;-37
2023/06/19 11:05:59;;;;;;;9.23;6.78;;;26.10;93.60;;;;;;5042117;28;20212;-37
2023/06/19 11:08:29;;;;;;;9.43;6.75;;;26.10;93.40;;;;;;5056194;28;20204;-34
2023/06/19 11:10:59;;;;;;;13.00;7.45;;;26.10;93.40;;;;;;5039856;28;20558;-33
2023/06/19 11:13:26;;;;;;;8.45;6.45;;;26.10;93.50;;;;;;5073030;28;20247;-33
2023/06/19 11:15:56;;;;;;;11.23;6.82;;;26.10;93.40;;;;;;5041510;28;20231;-33
2023/06/19 11:18:28;;;;;;;12.52;6.90;;;26.20;93.50;;;;;;5039479;28;20201;-33
2023/06/19 11:20:55;;;;;;;9.20;6.47;;;26.20;93.30;;;;;;5040859;28;20248;-35
2023/06/19 11:23:30;;;;;;;9.52;6.20;;;26.30;93.50;;;;;;5056430;28;20236;-34
2023/06/19 11:26:07;;;;;;;8.32;5.80;;;26.30;93.40;;;;;;5055943;28;20697;-34
2023/06/19 11:28:35;;;;;;;8.25;5.97;;;26.40;93.50;;;;;;5041530;28;20648;-35
2023/06/19 11:31:09;;;;;;;12.02;6.05;;;26.40;93.50;;;;;;5039887;28;20659;-37
2023/06/19 11:33:37;;;;;;;9.98;6.00;;;26.40;93.30;;;;;;5041293;28;20208;-35
2023/06/19 11:36:04;;;;;;;11.00;6.00;;;26.50;93.20;;;;;;5039219;28;20220;-40
2023/06/19 11:38:38;;;;;;;8.02;5.50;;;26.50;93.20;;;;;;5058830;28;20724;-36
2023/06/19 11:41:06;;;;;;;7.93;5.53;;;26.50;92.80;;;;;;5044296;28;20207;-38
2023/06/19 11:43:35;;;;;;;8.77;6.10;;;26.50;92.80;;;;;;5042806;28;20223;-36
2023/06/19 11:46:07;;;;;;;8.18;6.32;;;26.50;92.70;;;;;;5044634;28;20253;-36
2023/06/19 11:48:38;;;;;;;6.78;5.78;;;26.50;92.70;;;;;;5059502;28;20204;-36
2023/06/19 11:51:08;;;;;;;7.88;5.75;;;26.50;92.70;;;;;;5076188;28;20231;-36
2023/06/19 11:53:35;;;;;;;10.13;6.10;;;26.50;92.70;;;;;;5059589;28;20218;-37
2023/06/19 11:56:07;;;;;;;7.32;5.85;;;26.50;92.80;;;;;;5056970;28;20244;-37
2023/06/19 11:58:35;;;;;;;8.10;5.68;;;26.60;92.80;;;;;;5044756;28;20493;-37
2023/06/19 12:01:04;;;;;;;9.07;5.93;;;26.60;92.70;;;;;;5042478;28;20370;-38
2023/06/19 12:03:34;;;;;;;7.80;6.10;;;26.70;92.70;;;;;;5044447;28;20204;-36
2023/06/19 12:06:05;;;;;;;10.52;6.25;;;26.70;92.70;;;;;;5042457;28;20200;-35
2023/06/19 12:08:33;;;;;;;9.60;5.53;;;26.70;92.20;;;;;;5058663;28;20270;-35
2023/06/19 12:11:03;;;;;;;8.13;5.50;;;26.70;92.10;;;;;;5058234;28;20208;-36
2023/06/19 12:13:37;;;;;;;12.93;6.85;;;26.70;92.20;;;;;;5043878;28;20216;-36
2023/06/19 12:16:07;;;;;;;45.92;11.43;;;26.70;92.00;;;;;;5059043;28;20854;-35
2023/06/19 12:18:34;;;;;;;18.33;6.53;;;26.70;92.00;;;;;;5043976;28;20204;-35
2023/06/19 12:21:04;;;;;;;10.90;5.75;;;26.70;92.10;;;;;;5043814;28;20733;-36
2023/06/19 12:23:38;;;;;;;10.73;6.15;;;26.80;91.90;;;;;;5044396;28;20272;-36
2023/06/19 12:26:08;;;;;;;8.45;5.57;;;26.80;91.90;;;;;;5042677;28;20681;-36
2023/06/19 12:28:37;;;;;;;7.78;5.32;;;26.70;91.80;;;;;;5043896;28;20204;-36
2023/06/19 12:31:08;;;;;;;8.80;5.80;;;26.80;92.00;;;;;;5043907;28;20208;-36
2023/06/19 12:33:43;;;;;;;6.80;5.40;;;26.80;91.90;;;;;;5042262;28;20200;-36
2023/06/19 12:36:14;;;;;;;10.15;6.30;;;26.80;91.80;;;;;;5044023;28;20338;-36
2023/06/19 12:38:43;;;;;;;7.15;5.45;;;26.80;91.60;;;;;;5059513;28;20656;-36
2023/06/19 12:41:17;;;;;;;8.57;5.90;;;26.80;91.70;;;;;;5042304;28;20281;-36
2023/06/19 12:43:46;;;;;;;7.78;4.97;;;26.90;91.80;;;;;;5044211;28;20713;-36
2023/06/19 12:46:16;;;;;;;9.05;5.72;;;26.90;91.80;;;;;;5075792;28;20238;-36
2023/06/19 12:48:44;;;;;;;10.15;5.45;;;27.00;91.90;;;;;;5058377;28;20212;-36
2023/06/19 12:51:11;;;;;;;8.27;5.72;;;27.00;91.80;;;;;;5043669;28;20212;-37
2023/06/19 12:53:38;;;;;;;7.45;5.60;;;27.10;91.90;;;;;;5043696;28;20661;-36
2023/06/19 12:56:10;;;;;;;7.63;5.35;;;27.10;91.90;;;;;;5043355;28;20333;-36
2023/06/19 12:58:42;;;;;;;5.45;4.97;;;27.20;91.90;;;;;;5043272;28;20254;-36
2023/06/19 13:01:10;;;;;;;6.15;5.55;;;27.20;91.80;;;;;;5041644;28;20265;-35
2023/06/19 13:03:37;;;;;;;6.70;5.57;;;27.30;91.90;;;;;;5042084;28;20197;-35
2023/06/19 13:06:07;;;;;;;5.90;5.00;;;27.30;92.20;;;;;;5041615;28;20303;-35
2023/06/19 13:08:40;;;;;;;6.50;5.30;;;27.40;92.00;;;;;;5043793;28;20257;-35
2023/06/19 13:11:09;;;;;;;7.05;5.45;;;27.50;91.90;;;;;;5042693;28;20219;-35
2023/06/19 13:13:39;;;;;;;8.63;5.43;;;27.50;91.90;;;;;;5043074;28;20207;-35
2023/06/19 13:16:11;;;;;;;6.07;5.15;;;27.60;91.90;;;;;;5041321;28;20251;-36
2023/06/19 13:18:48;;;;;;;5.93;4.55;;;27.60;91.80;;;;;;5042489;28;20671;-36
2023/06/19 13:21:17;;;;;;;7.70;4.80;;;27.70;91.70;;;;;;5043251;28;20208;-35